sensor_id;sensor_type;location;lat;lon;timestamp;P1;durP1;ratioP1;P2;durP2;ratioP2
79284;SDS011;68734;50.452;11.636;2023-08-30T00:00:40;2.00;;;1.80;;
79284;SDS011;68734;50.452;11.636;2023-08-30T00:03:06;1.70;;;1.58;;
79284;SDS011;68734;50.452;11.636;2023-08-30T00:05:32;2.95;;;2.65;;
79284;SDS011;68734;50.452;11.636;2023-08-30T00:08:03;1.75;;;1.50;;
79284;SDS011;68734;50.452;11.636;2023-08-30T00:10:29;1.40;;;1.25;;
79284;SDS011;68734;50.452;11.636;2023-08-30T00:12:54;2.00;;;1.80;;
79284;SDS011;68734;50.452;11.636;2023-08-30T00:15:19;2.67;;;2.00;;
79284;SDS011;68734;50.452;11.636;2023-08-30T00:17:45;1.73;;;1.50;;
79284;SDS011;68734;50.452;11.636;2023-08-30T00:20:11;2.50;;;1.90;;
79284;SDS011;68734;50.452;11.636;2023-08-30T00:22:37;1.95;;;1.77;;
79284;SDS011;68734;50.452;11.636;2023-08-30T00:25:02;1.88;;;1.67;;
79284;SDS011;68734;50.452;11.636;2023-08-30T00:27:28;2.67;;;1.90;;
79284;SDS011;68734;50.452;11.636;2023-08-30T00:29:54;2.05;;;1.63;;
79284;SDS011;68734;50.452;11.636;2023-08-30T00:32:19;2.03;;;1.70;;
79284;SDS011;68734;50.452;11.636;2023-08-30T00:34:44;2.42;;;1.67;;
79284;SDS011;68734;50.452;11.636;2023-08-30T00:37:10;2.38;;;1.58;;
79284;SDS011;68734;50.452;11.636;2023-08-30T00:39:38;1.92;;;1.45;;
79284;SDS011;68734;50.452;11.636;2023-08-30T00:42:05;4.25;;;1.90;;
79284;SDS011;68734;50.452;11.636;2023-08-30T00:44:32;1.52;;;1.42;;
79284;SDS011;68734;50.452;11.636;2023-08-30T00:46:58;3.35;;;1.60;;
79284;SDS011;68734;50.452;11.636;2023-08-30T00:49:24;2.30;;;2.05;;
79284;SDS011;68734;50.452;11.636;2023-08-30T00:51:50;1.60;;;1.50;;
79284;SDS011;68734;50.452;11.636;2023-08-30T00:54:16;2.13;;;1.92;;
79284;SDS011;68734;50.452;11.636;2023-08-30T00:56:42;1.80;;;1.60;;
79284;SDS011;68734;50.452;11.636;2023-08-30T00:59:07;2.20;;;1.63;;
79284;SDS011;68734;50.452;11.636;2023-08-30T01:01:33;2.25;;;1.70;;
79284;SDS011;68734;50.452;11.636;2023-08-30T01:03:58;1.90;;;1.70;;
79284;SDS011;68734;50.452;11.636;2023-08-30T01:06:24;2.15;;;1.95;;
79284;SDS011;68734;50.452;11.636;2023-08-30T01:08:49;3.75;;;1.90;;
79284;SDS011;68734;50.452;11.636;2023-08-30T01:11:19;1.55;;;1.45;;
79284;SDS011;68734;50.452;11.636;2023-08-30T01:14:01;2.60;;;1.42;;
79284;SDS011;68734;50.452;11.636;2023-08-30T01:16:32;2.85;;;1.83;;
79284;SDS011;68734;50.452;11.636;2023-08-30T01:19:00;1.67;;;1.58;;
79284;SDS011;68734;50.452;11.636;2023-08-30T01:21:53;3.83;;;2.00;;
79284;SDS011;68734;50.452;11.636;2023-08-30T01:24:28;3.15;;;1.42;;
79284;SDS011;68734;50.452;11.636;2023-08-30T01:27:08;1.77;;;1.65;;
79284;SDS011;68734;50.452;11.636;2023-08-30T01:29:36;3.13;;;1.58;;
79284;SDS011;68734;50.452;11.636;2023-08-30T01:32:05;2.22;;;1.98;;
79284;SDS011;68734;50.452;11.636;2023-08-30T01:34:37;8.00;;;1.98;;
79284;SDS011;68734;50.452;11.636;2023-08-30T01:37:05;2.00;;;1.80;;
79284;SDS011;68734;50.452;11.636;2023-08-30T01:39:33;2.17;;;1.90;;
79284;SDS011;68734;50.452;11.636;2023-08-30T01:42:01;3.10;;;2.60;;
79284;SDS011;68734;50.452;11.636;2023-08-30T01:44:28;2.28;;;1.90;;
79284;SDS011;68734;50.452;11.636;2023-08-30T01:46:54;2.45;;;2.25;;
79284;SDS011;68734;50.452;11.636;2023-08-30T01:49:22;1.88;;;1.70;;
79284;SDS011;68734;50.452;11.636;2023-08-30T01:51:49;1.70;;;1.60;;
79284;SDS011;68734;50.452;11.636;2023-08-30T01:54:17;3.40;;;2.03;;
79284;SDS011;68734;50.452;11.636;2023-08-30T01:56:44;2.05;;;1.77;;
79284;SDS011;68734;50.452;11.636;2023-08-30T01:59:10;2.28;;;1.67;;
79284;SDS011;68734;50.452;11.636;2023-08-30T02:01:35;2.85;;;1.40;;
79284;SDS011;68734;50.452;11.636;2023-08-30T02:04:01;1.50;;;1.38;;
79284;SDS011;68734;50.452;11.636;2023-08-30T02:06:28;2.05;;;1.70;;
79284;SDS011;68734;50.452;11.636;2023-08-30T02:09:11;2.72;;;2.10;;
79284;SDS011;68734;50.452;11.636;2023-08-30T02:11:44;3.30;;;2.72;;
79284;SDS011;68734;50.452;11.636;2023-08-30T02:14:11;3.00;;;2.40;;
79284;SDS011;68734;50.452;11.636;2023-08-30T02:16:42;3.15;;;2.00;;
79284;SDS011;68734;50.452;11.636;2023-08-30T02:19:08;2.10;;;1.85;;
79284;SDS011;68734;50.452;11.636;2023-08-30T02:21:34;2.30;;;1.92;;
79284;SDS011;68734;50.452;11.636;2023-08-30T02:23:59;5.05;;;1.77;;
79284;SDS011;68734;50.452;11.636;2023-08-30T02:26:24;2.40;;;1.77;;
79284;SDS011;68734;50.452;11.636;2023-08-30T02:28:50;3.38;;;1.60;;
79284;SDS011;68734;50.452;11.636;2023-08-30T02:31:15;1.92;;;1.30;;
79284;SDS011;68734;50.452;11.636;2023-08-30T02:33:41;1.50;;;1.40;;
79284;SDS011;68734;50.452;11.636;2023-08-30T02:36:06;2.30;;;1.40;;
79284;SDS011;68734;50.452;11.636;2023-08-30T02:38:33;1.90;;;1.40;;
79284;SDS011;68734;50.452;11.636;2023-08-30T02:40:58;1.92;;;1.40;;
79284;SDS011;68734;50.452;11.636;2023-08-30T02:43:23;1.45;;;1.30;;
79284;SDS011;68734;50.452;11.636;2023-08-30T02:45:49;1.50;;;1.35;;
79284;SDS011;68734;50.452;11.636;2023-08-30T02:48:14;2.00;;;1.30;;
79284;SDS011;68734;50.452;11.636;2023-08-30T02:50:40;2.15;;;1.10;;
79284;SDS011;68734;50.452;11.636;2023-08-30T02:53:05;1.75;;;1.10;;
79284;SDS011;68734;50.452;11.636;2023-08-30T02:55:33;1.23;;;1.02;;
79284;SDS011;68734;50.452;11.636;2023-08-30T02:57:59;2.45;;;1.23;;
79284;SDS011;68734;50.452;11.636;2023-08-30T03:00:25;1.20;;;1.10;;
79284;SDS011;68734;50.452;11.636;2023-08-30T03:02:50;1.38;;;1.10;;
79284;SDS011;68734;50.452;11.636;2023-08-30T03:05:15;1.35;;;1.13;;
79284;SDS011;68734;50.452;11.636;2023-08-30T03:07:41;1.30;;;1.02;;
79284;SDS011;68734;50.452;11.636;2023-08-30T03:10:06;1.30;;;1.20;;
79284;SDS011;68734;50.452;11.636;2023-08-30T03:12:32;1.25;;;0.90;;
79284;SDS011;68734;50.452;11.636;2023-08-30T03:14:58;1.20;;;1.10;;
79284;SDS011;68734;50.452;11.636;2023-08-30T03:17:23;1.13;;;1.00;;
79284;SDS011;68734;50.452;11.636;2023-08-30T03:19:51;2.47;;;1.35;;
79284;SDS011;68734;50.452;11.636;2023-08-30T03:22:18;1.48;;;1.25;;
79284;SDS011;68734;50.452;11.636;2023-08-30T03:24:43;1.85;;;1.38;;
79284;SDS011;68734;50.452;11.636;2023-08-30T03:27:11;1.92;;;1.52;;
79284;SDS011;68734;50.452;11.636;2023-08-30T03:29:37;2.00;;;1.50;;
79284;SDS011;68734;50.452;11.636;2023-08-30T03:32:02;1.35;;;1.25;;
79284;SDS011;68734;50.452;11.636;2023-08-30T03:34:28;3.55;;;1.67;;
79284;SDS011;68734;50.452;11.636;2023-08-30T03:36:54;2.15;;;1.73;;
79284;SDS011;68734;50.452;11.636;2023-08-30T03:39:22;3.35;;;1.75;;
79284;SDS011;68734;50.452;11.636;2023-08-30T03:41:57;1.77;;;1.63;;
79284;SDS011;68734;50.452;11.636;2023-08-30T03:44:22;3.30;;;1.85;;
79284;SDS011;68734;50.452;11.636;2023-08-30T03:46:48;1.75;;;1.52;;
79284;SDS011;68734;50.452;11.636;2023-08-30T03:49:13;2.58;;;1.65;;
79284;SDS011;68734;50.452;11.636;2023-08-30T03:51:41;2.72;;;1.52;;
79284;SDS011;68734;50.452;11.636;2023-08-30T03:54:07;1.70;;;1.60;;
79284;SDS011;68734;50.452;11.636;2023-08-30T03:56:36;1.88;;;1.50;;
79284;SDS011;68734;50.452;11.636;2023-08-30T03:59:01;2.85;;;1.80;;
79284;SDS011;68734;50.452;11.636;2023-08-30T04:01:27;2.05;;;1.80;;
79284;SDS011;68734;50.452;11.636;2023-08-30T04:03:54;1.52;;;1.42;;
79284;SDS011;68734;50.452;11.636;2023-08-30T04:06:20;2.78;;;1.70;;
79284;SDS011;68734;50.452;11.636;2023-08-30T04:08:46;5.13;;;1.20;;
79284;SDS011;68734;50.452;11.636;2023-08-30T04:11:14;1.60;;;1.40;;
79284;SDS011;68734;50.452;11.636;2023-08-30T04:13:39;3.33;;;2.17;;
79284;SDS011;68734;50.452;11.636;2023-08-30T04:16:05;3.25;;;1.88;;
79284;SDS011;68734;50.452;11.636;2023-08-30T04:18:33;2.42;;;1.88;;
79284;SDS011;68734;50.452;11.636;2023-08-30T04:20:58;2.15;;;1.60;;
79284;SDS011;68734;50.452;11.636;2023-08-30T04:23:24;2.70;;;2.20;;
79284;SDS011;68734;50.452;11.636;2023-08-30T04:25:50;3.50;;;2.28;;
79284;SDS011;68734;50.452;11.636;2023-08-30T04:28:15;3.15;;;2.33;;
79284;SDS011;68734;50.452;11.636;2023-08-30T04:30:40;2.95;;;2.60;;
79284;SDS011;68734;50.452;11.636;2023-08-30T04:33:06;2.70;;;2.00;;
79284;SDS011;68734;50.452;11.636;2023-08-30T04:35:31;2.35;;;2.08;;
79284;SDS011;68734;50.452;11.636;2023-08-30T04:38:00;2.38;;;2.10;;
79284;SDS011;68734;50.452;11.636;2023-08-30T04:40:27;2.47;;;1.85;;
79284;SDS011;68734;50.452;11.636;2023-08-30T04:42:53;3.33;;;2.88;;
79284;SDS011;68734;50.452;11.636;2023-08-30T04:45:18;2.80;;;2.38;;
79284;SDS011;68734;50.452;11.636;2023-08-30T04:47:44;2.60;;;2.40;;
79284;SDS011;68734;50.452;11.636;2023-08-30T04:50:10;2.40;;;2.20;;
79284;SDS011;68734;50.452;11.636;2023-08-30T04:52:36;4.60;;;2.47;;
79284;SDS011;68734;50.452;11.636;2023-08-30T04:55:01;3.33;;;2.20;;
79284;SDS011;68734;50.452;11.636;2023-08-30T04:57:27;2.45;;;2.22;;
79284;SDS011;68734;50.452;11.636;2023-08-30T04:59:53;2.00;;;1.80;;
79284;SDS011;68734;50.452;11.636;2023-08-30T05:02:18;6.50;;;3.20;;
79284;SDS011;68734;50.452;11.636;2023-08-30T05:04:44;4.55;;;2.83;;
79284;SDS011;68734;50.452;11.636;2023-08-30T05:07:09;3.78;;;2.90;;
79284;SDS011;68734;50.452;11.636;2023-08-30T05:09:35;3.20;;;2.90;;
79284;SDS011;68734;50.452;11.636;2023-08-30T05:12:00;3.35;;;2.78;;
79284;SDS011;68734;50.452;11.636;2023-08-30T05:14:26;3.42;;;2.63;;
79284;SDS011;68734;50.452;11.636;2023-08-30T05:16:52;3.25;;;2.67;;
79284;SDS011;68734;50.452;11.636;2023-08-30T05:19:17;3.38;;;2.28;;
79284;SDS011;68734;50.452;11.636;2023-08-30T05:21:43;2.78;;;2.55;;
79284;SDS011;68734;50.452;11.636;2023-08-30T05:24:09;2.88;;;2.45;;
79284;SDS011;68734;50.452;11.636;2023-08-30T05:26:35;3.05;;;2.75;;
79284;SDS011;68734;50.452;11.636;2023-08-30T05:29:00;4.60;;;2.50;;
79284;SDS011;68734;50.452;11.636;2023-08-30T05:31:26;2.58;;;2.38;;
79284;SDS011;68734;50.452;11.636;2023-08-30T05:33:52;6.47;;;4.70;;
79284;SDS011;68734;50.452;11.636;2023-08-30T05:36:17;5.80;;;4.90;;
79284;SDS011;68734;50.452;11.636;2023-08-30T05:38:43;3.40;;;3.05;;
79284;SDS011;68734;50.452;11.636;2023-08-30T05:41:08;3.40;;;2.42;;
79284;SDS011;68734;50.452;11.636;2023-08-30T05:43:34;3.67;;;2.90;;
79284;SDS011;68734;50.452;11.636;2023-08-30T05:46:02;6.32;;;2.30;;
79284;SDS011;68734;50.452;11.636;2023-08-30T05:48:32;4.32;;;2.58;;
79284;SDS011;68734;50.452;11.636;2023-08-30T05:50:58;3.13;;;2.80;;
79284;SDS011;68734;50.452;11.636;2023-08-30T05:53:23;5.18;;;2.67;;
79284;SDS011;68734;50.452;11.636;2023-08-30T05:55:49;2.92;;;2.55;;
79284;SDS011;68734;50.452;11.636;2023-08-30T05:58:20;2.88;;;2.58;;
79284;SDS011;68734;50.452;11.636;2023-08-30T06:00:51;2.42;;;2.22;;
79284;SDS011;68734;50.452;11.636;2023-08-30T06:03:19;3.15;;;2.28;;
79284;SDS011;68734;50.452;11.636;2023-08-30T06:05:44;2.83;;;2.33;;
79284;SDS011;68734;50.452;11.636;2023-08-30T06:08:10;4.85;;;2.20;;
79284;SDS011;68734;50.452;11.636;2023-08-30T06:10:36;5.65;;;2.00;;
79284;SDS011;68734;50.452;11.636;2023-08-30T06:13:01;2.33;;;1.85;;
79284;SDS011;68734;50.452;11.636;2023-08-30T06:15:28;2.42;;;2.22;;
79284;SDS011;68734;50.452;11.636;2023-08-30T06:17:53;4.43;;;2.42;;
79284;SDS011;68734;50.452;11.636;2023-08-30T06:20:19;2.60;;;1.83;;
79284;SDS011;68734;50.452;11.636;2023-08-30T06:22:44;2.50;;;1.83;;
79284;SDS011;68734;50.452;11.636;2023-08-30T06:25:10;2.50;;;1.88;;
79284;SDS011;68734;50.452;11.636;2023-08-30T06:27:40;4.55;;;2.42;;
79284;SDS011;68734;50.452;11.636;2023-08-30T06:30:08;2.53;;;1.92;;
79284;SDS011;68734;50.452;11.636;2023-08-30T06:32:37;2.00;;;1.50;;
79284;SDS011;68734;50.452;11.636;2023-08-30T06:35:02;1.85;;;1.60;;
79284;SDS011;68734;50.452;11.636;2023-08-30T06:37:29;2.22;;;1.40;;
79284;SDS011;68734;50.452;11.636;2023-08-30T06:39:54;1.92;;;1.38;;
79284;SDS011;68734;50.452;11.636;2023-08-30T06:42:20;3.13;;;2.00;;
79284;SDS011;68734;50.452;11.636;2023-08-30T06:44:45;2.22;;;1.92;;
79284;SDS011;68734;50.452;11.636;2023-08-30T06:47:11;2.33;;;1.67;;
79284;SDS011;68734;50.452;11.636;2023-08-30T06:49:38;2.05;;;1.85;;
79284;SDS011;68734;50.452;11.636;2023-08-30T06:52:04;3.08;;;1.92;;
79284;SDS011;68734;50.452;11.636;2023-08-30T06:54:33;2.40;;;1.85;;
79284;SDS011;68734;50.452;11.636;2023-08-30T06:57:00;2.45;;;2.00;;
79284;SDS011;68734;50.452;11.636;2023-08-30T06:59:26;2.10;;;1.90;;
79284;SDS011;68734;50.452;11.636;2023-08-30T07:01:52;2.03;;;1.48;;
79284;SDS011;68734;50.452;11.636;2023-08-30T07:04:18;2.13;;;1.80;;
79284;SDS011;68734;50.452;11.636;2023-08-30T07:06:44;2.28;;;1.63;;
79284;SDS011;68734;50.452;11.636;2023-08-30T07:09:09;2.17;;;1.67;;
79284;SDS011;68734;50.452;11.636;2023-08-30T07:11:36;1.42;;;1.30;;
79284;SDS011;68734;50.452;11.636;2023-08-30T07:14:02;2.28;;;1.25;;
79284;SDS011;68734;50.452;11.636;2023-08-30T07:16:27;2.00;;;1.35;;
79284;SDS011;68734;50.452;11.636;2023-08-30T07:18:53;1.92;;;1.50;;
79284;SDS011;68734;50.452;11.636;2023-08-30T07:21:23;1.70;;;1.33;;
79284;SDS011;68734;50.452;11.636;2023-08-30T07:23:49;2.72;;;1.70;;
79284;SDS011;68734;50.452;11.636;2023-08-30T07:26:14;2.53;;;1.40;;
79284;SDS011;68734;50.452;11.636;2023-08-30T07:28:40;2.05;;;1.50;;
79284;SDS011;68734;50.452;11.636;2023-08-30T07:31:05;1.38;;;1.13;;
79284;SDS011;68734;50.452;11.636;2023-08-30T07:33:31;1.65;;;1.20;;
79284;SDS011;68734;50.452;11.636;2023-08-30T07:36:01;3.00;;;2.05;;
79284;SDS011;68734;50.452;11.636;2023-08-30T07:38:27;1.10;;;0.90;;
79284;SDS011;68734;50.452;11.636;2023-08-30T07:40:55;2.20;;;1.30;;
79284;SDS011;68734;50.452;11.636;2023-08-30T07:43:21;1.63;;;0.75;;
79284;SDS011;68734;50.452;11.636;2023-08-30T07:45:46;1.83;;;0.80;;
79284;SDS011;68734;50.452;11.636;2023-08-30T07:48:14;3.42;;;1.13;;
79284;SDS011;68734;50.452;11.636;2023-08-30T07:50:39;1.35;;;0.80;;
79284;SDS011;68734;50.452;11.636;2023-08-30T07:53:05;1.45;;;1.00;;
79284;SDS011;68734;50.452;11.636;2023-08-30T07:55:30;1.25;;;1.00;;
79284;SDS011;68734;50.452;11.636;2023-08-30T07:57:56;0.93;;;0.80;;
79284;SDS011;68734;50.452;11.636;2023-08-30T08:00:24;1.77;;;1.05;;
79284;SDS011;68734;50.452;11.636;2023-08-30T08:02:49;1.20;;;0.90;;
79284;SDS011;68734;50.452;11.636;2023-08-30T08:05:14;0.98;;;0.80;;
79284;SDS011;68734;50.452;11.636;2023-08-30T08:07:41;0.77;;;0.70;;
79284;SDS011;68734;50.452;11.636;2023-08-30T08:10:07;1.20;;;0.73;;
79284;SDS011;68734;50.452;11.636;2023-08-30T08:12:36;1.88;;;1.10;;
79284;SDS011;68734;50.452;11.636;2023-08-30T08:15:02;0.82;;;0.68;;
79284;SDS011;68734;50.452;11.636;2023-08-30T08:17:28;0.77;;;0.60;;
79284;SDS011;68734;50.452;11.636;2023-08-30T08:19:54;1.10;;;0.80;;
79284;SDS011;68734;50.452;11.636;2023-08-30T08:22:19;2.75;;;0.88;;
79284;SDS011;68734;50.452;11.636;2023-08-30T08:24:50;1.02;;;0.60;;
79284;SDS011;68734;50.452;11.636;2023-08-30T08:27:16;0.77;;;0.70;;
79284;SDS011;68734;50.452;11.636;2023-08-30T08:29:42;1.52;;;0.98;;
79284;SDS011;68734;50.452;11.636;2023-08-30T08:32:07;1.10;;;0.70;;
79284;SDS011;68734;50.452;11.636;2023-08-30T08:34:33;0.90;;;0.65;;
79284;SDS011;68734;50.452;11.636;2023-08-30T08:36:59;1.30;;;1.20;;
79284;SDS011;68734;50.452;11.636;2023-08-30T08:39:24;2.55;;;0.73;;
79284;SDS011;68734;50.452;11.636;2023-08-30T08:41:52;1.80;;;0.98;;
79284;SDS011;68734;50.452;11.636;2023-08-30T08:44:19;1.65;;;0.80;;
79284;SDS011;68734;50.452;11.636;2023-08-30T08:46:47;9.48;;;1.55;;
79284;SDS011;68734;50.452;11.636;2023-08-30T08:49:17;1.88;;;0.70;;
79284;SDS011;68734;50.452;11.636;2023-08-30T08:51:45;1.30;;;0.70;;
79284;SDS011;68734;50.452;11.636;2023-08-30T08:54:11;0.95;;;0.68;;
79284;SDS011;68734;50.452;11.636;2023-08-30T08:56:37;0.98;;;0.70;;
79284;SDS011;68734;50.452;11.636;2023-08-30T08:59:04;0.85;;;0.60;;
79284;SDS011;68734;50.452;11.636;2023-08-30T09:01:31;0.80;;;0.80;;
79284;SDS011;68734;50.452;11.636;2023-08-30T09:04:00;1.77;;;0.77;;
79284;SDS011;68734;50.452;11.636;2023-08-30T09:06:30;1.08;;;0.90;;
79284;SDS011;68734;50.452;11.636;2023-08-30T09:08:55;1.45;;;0.60;;
79284;SDS011;68734;50.452;11.636;2023-08-30T09:11:23;1.83;;;0.80;;
79284;SDS011;68734;50.452;11.636;2023-08-30T09:13:48;2.67;;;0.88;;
79284;SDS011;68734;50.452;11.636;2023-08-30T09:16:16;0.98;;;0.70;;
79284;SDS011;68734;50.452;11.636;2023-08-30T09:18:42;1.60;;;0.73;;
79284;SDS011;68734;50.452;11.636;2023-08-30T09:21:11;1.20;;;0.90;;
79284;SDS011;68734;50.452;11.636;2023-08-30T09:23:36;1.80;;;0.80;;
79284;SDS011;68734;50.452;11.636;2023-08-30T09:26:02;1.13;;;0.90;;
79284;SDS011;68734;50.452;11.636;2023-08-30T09:28:30;1.35;;;1.00;;
79284;SDS011;68734;50.452;11.636;2023-08-30T09:30:59;2.72;;;0.90;;
79284;SDS011;68734;50.452;11.636;2023-08-30T09:33:32;3.22;;;1.15;;
79284;SDS011;68734;50.452;11.636;2023-08-30T09:36:00;1.00;;;0.73;;
79284;SDS011;68734;50.452;11.636;2023-08-30T09:38:25;1.25;;;0.90;;
79284;SDS011;68734;50.452;11.636;2023-08-30T09:40:52;1.60;;;1.20;;
79284;SDS011;68734;50.452;11.636;2023-08-30T09:43:27;1.38;;;0.95;;
79284;SDS011;68734;50.452;11.636;2023-08-30T09:45:52;1.75;;;1.65;;
79284;SDS011;68734;50.452;11.636;2023-08-30T09:48:21;1.45;;;0.98;;
79284;SDS011;68734;50.452;11.636;2023-08-30T09:50:47;1.85;;;1.00;;
79284;SDS011;68734;50.452;11.636;2023-08-30T09:53:19;1.17;;;0.77;;
79284;SDS011;68734;50.452;11.636;2023-08-30T09:55:46;1.42;;;0.88;;
79284;SDS011;68734;50.452;11.636;2023-08-30T09:58:16;1.23;;;0.90;;
79284;SDS011;68734;50.452;11.636;2023-08-30T10:00:42;2.13;;;1.23;;
79284;SDS011;68734;50.452;11.636;2023-08-30T10:03:08;1.13;;;1.00;;
79284;SDS011;68734;50.452;11.636;2023-08-30T10:05:35;1.52;;;1.00;;
79284;SDS011;68734;50.452;11.636;2023-08-30T10:08:01;2.30;;;1.35;;
79284;SDS011;68734;50.452;11.636;2023-08-30T10:10:27;2.20;;;1.45;;
79284;SDS011;68734;50.452;11.636;2023-08-30T10:12:56;3.05;;;1.00;;
79284;SDS011;68734;50.452;11.636;2023-08-30T10:15:22;3.58;;;1.00;;
79284;SDS011;68734;50.452;11.636;2023-08-30T10:17:52;1.20;;;0.90;;
79284;SDS011;68734;50.452;11.636;2023-08-30T10:20:19;2.30;;;1.20;;
79284;SDS011;68734;50.452;11.636;2023-08-30T10:22:47;1.77;;;1.13;;
79284;SDS011;68734;50.452;11.636;2023-08-30T10:25:17;1.85;;;0.90;;
79284;SDS011;68734;50.452;11.636;2023-08-30T10:30:13;1.85;;;0.93;;
79284;SDS011;68734;50.452;11.636;2023-08-30T10:32:42;3.30;;;1.20;;
79284;SDS011;68734;50.452;11.636;2023-08-30T10:35:12;1.83;;;1.10;;
79284;SDS011;68734;50.452;11.636;2023-08-30T10:37:40;1.40;;;1.02;;
79284;SDS011;68734;50.452;11.636;2023-08-30T10:40:06;1.10;;;0.80;;
79284;SDS011;68734;50.452;11.636;2023-08-30T10:42:32;2.90;;;1.13;;
79284;SDS011;68734;50.452;11.636;2023-08-30T10:47:33;1.13;;;0.93;;
79284;SDS011;68734;50.452;11.636;2023-08-30T10:50:10;1.58;;;0.95;;
79284;SDS011;68734;50.452;11.636;2023-08-30T10:52:36;1.13;;;0.90;;
79284;SDS011;68734;50.452;11.636;2023-08-30T10:55:09;1.30;;;0.93;;
79284;SDS011;68734;50.452;11.636;2023-08-30T10:57:35;2.22;;;0.80;;
79284;SDS011;68734;50.452;11.636;2023-08-30T11:02:45;1.00;;;0.88;;
79284;SDS011;68734;50.452;11.636;2023-08-30T11:05:13;1.27;;;1.05;;
79284;SDS011;68734;50.452;11.636;2023-08-30T11:07:40;2.22;;;0.90;;
79284;SDS011;68734;50.452;11.636;2023-08-30T11:10:05;1.20;;;0.80;;
79284;SDS011;68734;50.452;11.636;2023-08-30T11:12:32;1.23;;;0.85;;
79284;SDS011;68734;50.452;11.636;2023-08-30T11:14:58;1.58;;;0.88;;
79284;SDS011;68734;50.452;11.636;2023-08-30T11:17:23;1.33;;;0.77;;
79284;SDS011;68734;50.452;11.636;2023-08-30T11:19:50;1.38;;;1.05;;
79284;SDS011;68734;50.452;11.636;2023-08-30T11:22:22;1.90;;;1.10;;
79284;SDS011;68734;50.452;11.636;2023-08-30T11:24:48;1.08;;;0.85;;
79284;SDS011;68734;50.452;11.636;2023-08-30T11:27:17;1.80;;;1.20;;
79284;SDS011;68734;50.452;11.636;2023-08-30T11:29:43;3.10;;;1.50;;
79284;SDS011;68734;50.452;11.636;2023-08-30T11:32:08;1.27;;;1.08;;
79284;SDS011;68734;50.452;11.636;2023-08-30T11:34:33;0.90;;;0.80;;
79284;SDS011;68734;50.452;11.636;2023-08-30T11:36:59;1.73;;;0.90;;
79284;SDS011;68734;50.452;11.636;2023-08-30T11:39:26;1.90;;;0.88;;
79284;SDS011;68734;50.452;11.636;2023-08-30T11:41:53;2.65;;;1.00;;
79284;SDS011;68734;50.452;11.636;2023-08-30T11:44:18;1.60;;;1.08;;
79284;SDS011;68734;50.452;11.636;2023-08-30T11:46:44;1.15;;;0.88;;
79284;SDS011;68734;50.452;11.636;2023-08-30T11:49:12;5.55;;;0.98;;
79284;SDS011;68734;50.452;11.636;2023-08-30T11:51:40;2.00;;;1.00;;
79284;SDS011;68734;50.452;11.636;2023-08-30T11:54:07;1.70;;;1.10;;
79284;SDS011;68734;50.452;11.636;2023-08-30T11:56:32;1.63;;;1.05;;
79284;SDS011;68734;50.452;11.636;2023-08-30T11:59:00;1.75;;;1.00;;
79284;SDS011;68734;50.452;11.636;2023-08-30T12:01:26;1.52;;;1.02;;
79284;SDS011;68734;50.452;11.636;2023-08-30T12:03:51;1.73;;;0.95;;
79284;SDS011;68734;50.452;11.636;2023-08-30T12:06:17;2.45;;;1.40;;
79284;SDS011;68734;50.452;11.636;2023-08-30T12:08:42;1.52;;;1.00;;
79284;SDS011;68734;50.452;11.636;2023-08-30T12:11:20;1.40;;;1.00;;
79284;SDS011;68734;50.452;11.636;2023-08-30T12:13:48;0.98;;;0.88;;
79284;SDS011;68734;50.452;11.636;2023-08-30T12:16:16;1.83;;;0.98;;
79284;SDS011;68734;50.452;11.636;2023-08-30T12:18:43;1.45;;;1.23;;
79284;SDS011;68734;50.452;11.636;2023-08-30T12:21:12;1.33;;;0.90;;
79284;SDS011;68734;50.452;11.636;2023-08-30T12:23:38;1.95;;;0.88;;
79284;SDS011;68734;50.452;11.636;2023-08-30T12:26:06;1.98;;;0.82;;
79284;SDS011;68734;50.452;11.636;2023-08-30T12:28:34;1.60;;;1.00;;
79284;SDS011;68734;50.452;11.636;2023-08-30T12:31:01;1.30;;;1.00;;
79284;SDS011;68734;50.452;11.636;2023-08-30T12:33:29;2.42;;;1.20;;
79284;SDS011;68734;50.452;11.636;2023-08-30T12:35:55;1.88;;;1.10;;
79284;SDS011;68734;50.452;11.636;2023-08-30T12:38:21;2.67;;;1.00;;
79284;SDS011;68734;50.452;11.636;2023-08-30T12:40:48;1.35;;;1.10;;
79284;SDS011;68734;50.452;11.636;2023-08-30T12:43:18;1.65;;;1.00;;
79284;SDS011;68734;50.452;11.636;2023-08-30T12:45:47;1.17;;;0.90;;
79284;SDS011;68734;50.452;11.636;2023-08-30T12:48:14;1.77;;;1.25;;
79284;SDS011;68734;50.452;11.636;2023-08-30T12:50:41;1.52;;;1.13;;
79284;SDS011;68734;50.452;11.636;2023-08-30T12:53:08;1.58;;;1.20;;
79284;SDS011;68734;50.452;11.636;2023-08-30T12:55:34;1.60;;;1.13;;
79284;SDS011;68734;50.452;11.636;2023-08-30T12:58:00;1.50;;;1.33;;
79284;SDS011;68734;50.452;11.636;2023-08-30T13:00:26;1.60;;;1.35;;
79284;SDS011;68734;50.452;11.636;2023-08-30T13:02:52;1.98;;;1.33;;
79284;SDS011;68734;50.452;11.636;2023-08-30T13:05:17;1.23;;;1.02;;
79284;SDS011;68734;50.452;11.636;2023-08-30T13:07:48;1.30;;;1.10;;
79284;SDS011;68734;50.452;11.636;2023-08-30T13:10:14;1.58;;;1.48;;
79284;SDS011;68734;50.452;11.636;2023-08-30T13:12:39;3.15;;;1.55;;
79284;SDS011;68734;50.452;11.636;2023-08-30T13:15:05;2.05;;;1.50;;
79284;SDS011;68734;50.452;11.636;2023-08-30T13:17:32;1.63;;;1.33;;
79284;SDS011;68734;50.452;11.636;2023-08-30T13:20:00;1.60;;;1.45;;
79284;SDS011;68734;50.452;11.636;2023-08-30T13:22:26;1.63;;;1.25;;
79284;SDS011;68734;50.452;11.636;2023-08-30T13:24:51;2.55;;;2.00;;
79284;SDS011;68734;50.452;11.636;2023-08-30T13:27:17;1.50;;;1.27;;
79284;SDS011;68734;50.452;11.636;2023-08-30T13:29:43;2.00;;;1.45;;
79284;SDS011;68734;50.452;11.636;2023-08-30T13:32:13;1.60;;;1.40;;
79284;SDS011;68734;50.452;11.636;2023-08-30T13:34:39;2.00;;;1.70;;
79284;SDS011;68734;50.452;11.636;2023-08-30T13:37:04;1.73;;;1.30;;
79284;SDS011;68734;50.452;11.636;2023-08-30T13:39:30;2.10;;;1.42;;
79284;SDS011;68734;50.452;11.636;2023-08-30T13:41:55;1.83;;;1.30;;
79284;SDS011;68734;50.452;11.636;2023-08-30T13:44:21;2.10;;;1.55;;
79284;SDS011;68734;50.452;11.636;2023-08-30T13:46:49;1.98;;;1.50;;
79284;SDS011;68734;50.452;11.636;2023-08-30T13:49:18;2.10;;;1.52;;
79284;SDS011;68734;50.452;11.636;2023-08-30T13:51:44;2.20;;;1.70;;
79284;SDS011;68734;50.452;11.636;2023-08-30T13:54:10;4.43;;;1.70;;
79284;SDS011;68734;50.452;11.636;2023-08-30T13:56:35;2.08;;;1.88;;
79284;SDS011;68734;50.452;11.636;2023-08-30T13:59:03;4.00;;;1.67;;
79284;SDS011;68734;50.452;11.636;2023-08-30T14:01:30;3.90;;;1.60;;
79284;SDS011;68734;50.452;11.636;2023-08-30T14:03:56;2.47;;;1.77;;
79284;SDS011;68734;50.452;11.636;2023-08-30T14:06:24;3.22;;;1.85;;
79284;SDS011;68734;50.452;11.636;2023-08-30T14:08:52;1.92;;;1.58;;
79284;SDS011;68734;50.452;11.636;2023-08-30T14:11:17;2.10;;;1.85;;
79284;SDS011;68734;50.452;11.636;2023-08-30T14:13:43;2.50;;;2.30;;
79284;SDS011;68734;50.452;11.636;2023-08-30T14:16:11;2.65;;;2.00;;
79284;SDS011;68734;50.452;11.636;2023-08-30T14:18:36;6.10;;;2.25;;
79284;SDS011;68734;50.452;11.636;2023-08-30T14:21:02;2.10;;;1.90;;
79284;SDS011;68734;50.452;11.636;2023-08-30T14:23:29;4.47;;;2.15;;
79284;SDS011;68734;50.452;11.636;2023-08-30T14:25:58;2.00;;;1.77;;
79284;SDS011;68734;50.452;11.636;2023-08-30T14:28:33;3.08;;;1.67;;
79284;SDS011;68734;50.452;11.636;2023-08-30T14:31:02;2.80;;;1.80;;
79284;SDS011;68734;50.452;11.636;2023-08-30T14:33:31;2.47;;;2.08;;
79284;SDS011;68734;50.452;11.636;2023-08-30T14:35:56;3.95;;;2.78;;
79284;SDS011;68734;50.452;11.636;2023-08-30T14:38:22;2.33;;;1.95;;